createdAt,value
2018-10-16T00:15:10.981Z,77.15
2018-10-16T00:30:44.152Z,77.85
2018-10-16T00:46:17.697Z,81.33
2018-10-16T01:01:51.427Z,81.47
2018-10-16T01:17:25.118Z,81.56
2018-10-16T01:32:59.226Z,83.93
2018-10-16T01:48:32.131Z,85.73
2018-10-16T02:04:06.068Z,86.85
2018-10-16T06:02:49.939Z,52.77
2018-10-16T06:18:24.617Z,46.69
2018-10-16T06:34:06.600Z,43.17
2018-10-16T06:49:40.073Z,43.10
2018-10-16T07:05:13.641Z,43.62
2018-10-16T07:20:46.310Z,41.25
2018-10-16T07:36:20.279Z,42.14
2018-10-16T07:51:53.045Z,39.97
2018-10-16T08:07:27.006Z,38.57
2018-10-16T08:23:00.455Z,40.41
2018-10-16T08:38:50.467Z,38.35
2018-10-16T08:54:24.357Z,34.83
2018-10-16T09:09:57.990Z,33.11
2018-10-16T09:25:31.323Z,33.58
2018-10-16T09:41:05.205Z,33.41
2018-10-16T09:56:38.244Z,32.15
2018-10-16T10:12:11.291Z,32.03
2018-10-16T10:27:45.930Z,31.29
2018-10-16T10:43:20.815Z,28.89
2018-10-16T10:58:54.596Z,29.45
2018-10-16T11:14:28.486Z,27.89
2018-10-16T11:30:02.449Z,28.68
2018-10-16T11:45:36.778Z,29.48
2018-10-16T12:01:10.530Z,28.97
2018-10-16T12:16:49.080Z,30.56
2018-10-16T12:32:22.952Z,29.63
2018-10-16T12:47:57.808Z,28.68
2018-10-16T13:03:31.179Z,28.23
2018-10-16T13:19:05.419Z,28.33
2018-10-16T13:34:40.323Z,28.83
2018-10-16T13:50:13.948Z,28.66
2018-10-16T14:05:46.971Z,34.07
2018-10-16T14:21:20.302Z,35.28
2018-10-16T14:36:53.152Z,36.72
2018-10-16T14:52:26.155Z,37.95
2018-10-16T15:08:00.755Z,39.85
2018-10-16T15:23:35.472Z,44.39
2018-10-16T15:39:08.824Z,49.79
2018-10-16T15:54:41.842Z,50.43
2018-10-16T16:10:14.689Z,52.62
2018-10-16T16:25:47.667Z,51.83
2018-10-16T16:41:20.591Z,51.90
2018-10-16T16:56:54.452Z,54.31
2018-10-16T17:12:27.437Z,60.63
2018-10-16T17:28:01.044Z,62.42
2018-10-16T17:43:34.826Z,65.76
2018-10-16T17:59:08.711Z,65.29
2018-10-16T18:14:42.848Z,66.84
2018-10-16T18:30:17.608Z,68.35
2018-10-16T18:45:51.394Z,65.56
2018-10-16T19:01:26.039Z,59.03
2018-10-16T19:17:00.097Z,58.87
2018-10-16T19:32:34.100Z,57.73
2018-10-16T19:48:08.780Z,58.03
2018-10-16T20:03:43.177Z,58.39
2018-10-16T20:19:16.906Z,59.55
2018-10-16T20:34:51.615Z,61.49
2018-10-16T20:50:25.670Z,67.01
2018-10-16T21:05:59.504Z,69.22
2018-10-16T21:21:33.789Z,66.62
2018-10-16T21:37:07.695Z,66.67
2018-10-16T21:52:42.306Z,71.63
2018-10-16T22:08:15.186Z,72.54
2018-10-16T22:23:48.156Z,73.36
2018-10-16T22:39:23.651Z,76.05
2018-10-16T22:54:58.565Z,76.34
2018-10-16T23:10:32.253Z,77.55
2018-10-16T23:26:05.103Z,78.13
2018-10-16T23:41:40.150Z,79.42
2018-10-16T23:57:13.405Z,79.94
